Time;durP1;ratioP1;P1;durP2;ratioP2;P2;SDS_P1;SDS_P2;PMS_P1;PMS_P2;Temp;Humidity;BMP_temperature;BMP_pressure;BME280_temperature;BME280_humidity;BME280_pressure;Samples;Min_cycle;Max_cycle;Signal;HPM_P1;HPM_P2
2023/06/17 00:00:24;;;;;;;12.80;8.60;;;;;;;16.76;72.66;101579.53;5069674;28;20047;-72
2023/06/17 00:02:50;;;;;;;12.70;8.70;;;;;;;16.89;71.65;101576.75;5070795;28;20106;-73
2023/06/17 00:05:17;;;;;;;15.98;9.75;;;;;;;16.71;73.54;101579.91;5072812;28;20099;-73
2023/06/17 00:07:43;;;;;;;11.90;9.30;;;;;;;16.68;74.67;101576.56;5080279;28;20037;-73
2023/06/17 00:10:10;;;;;;;13.25;9.35;;;;;;;16.69;75.26;101572.91;5087392;28;20112;-75
2023/06/17 00:12:39;;;;;;;13.85;9.45;;;;;;;16.59;76.39;101578.13;5069095;28;20121;-72
2023/06/17 00:15:07;;;;;;;17.77;9.85;;;;;;;16.55;77.00;101574.81;5051399;28;20048;-73
2023/06/17 00:17:33;;;;;;;13.45;10.10;;;;;;;16.34;78.31;101575.59;5065958;28;20036;-74
2023/06/17 00:20:07;;;;;;;12.93;9.85;;;;;;;16.28;80.06;101574.22;5080235;28;20036;-73
2023/06/17 00:22:34;;;;;;;15.40;9.85;;;;;;;16.22;78.96;101566.63;5078617;28;20036;-73
2023/06/17 00:25:00;;;;;;;11.38;9.50;;;;;;;16.10;79.97;101567.53;5058470;28;20233;-73
2023/06/17 00:27:26;;;;;;;14.80;10.15;;;;;;;16.13;79.45;101570.00;5062172;28;20029;-75
2023/06/17 00:29:52;;;;;;;13.93;9.90;;;;;;;16.13;79.68;101564.63;5046250;28;20033;-71
2023/06/17 00:32:18;;;;;;;13.35;9.80;;;;;;;16.04;80.66;101563.47;5067801;28;20091;-75
2023/06/17 00:34:43;;;;;;;14.18;9.90;;;;;;;15.87;81.25;101558.50;5056977;28;20150;-73
2023/06/17 00:37:11;;;;;;;16.17;10.30;;;;;;;15.78;82.27;101563.59;5074102;28;20114;-73
2023/06/17 00:39:36;;;;;;;12.38;8.98;;;;;;;15.72;81.93;101563.19;5070832;28;20040;-74
2023/06/17 00:42:02;;;;;;;11.75;9.75;;;;;;;15.71;81.27;101564.13;5067351;28;20126;-73
2023/06/17 00:44:27;;;;;;;13.40;8.98;;;;;;;15.68;81.25;101561.69;5067770;28;20138;-74
2023/06/17 00:46:55;;;;;;;13.80;10.35;;;;;;;15.72;81.34;101563.19;5064980;28;20036;-74
2023/06/17 00:49:27;;;;;;;12.93;9.90;;;;;;;15.61;82.16;101563.91;5065546;28;20043;-72
2023/06/17 00:51:53;;;;;;;12.80;9.65;;;;;;;15.60;83.49;101564.88;5049954;28;20040;-76
2023/06/17 00:54:18;;;;;;;14.43;9.98;;;;;;;15.64;83.06;101562.88;5066787;28;20170;-75
2023/06/17 00:56:44;;;;;;;14.18;10.38;;;;;;;15.66;83.19;101556.44;5067355;28;20037;-74
2023/06/17 00:59:13;;;;;;;18.98;10.48;;;;;;;15.57;84.49;101551.69;5050703;28;20041;-73
2023/06/17 01:01:43;;;;;;;13.20;11.15;;;;;;;15.49;84.33;101554.91;5060815;28;20122;-73
2023/06/17 01:04:11;;;;;;;14.68;10.25;;;;;;;15.37;84.14;101546.91;5074245;28;20054;-73
2023/06/17 01:07:00;;;;;;;16.17;10.80;;;;;;;15.31;83.98;101547.31;5063138;28;20036;-74
2023/06/17 01:09:29;;;;;;;12.32;10.07;;;;;;;15.40;83.26;101541.28;5064608;28;20086;-73
2023/06/17 01:11:57;;;;;;;14.35;11.07;;;;;;;15.43;83.50;101543.78;5060568;28;20745;-73
2023/06/17 01:14:24;;;;;;;12.77;11.18;;;;;;;15.40;84.30;101542.16;5055481;28;20043;-75
2023/06/17 01:16:54;;;;;;;16.48;11.88;;;;;;;15.38;86.09;101535.19;5033141;28;20033;-74
2023/06/17 01:19:23;;;;;;;13.95;11.80;;;;;;;15.25;88.38;101535.19;5038919;28;20981;-72
2023/06/17 01:21:51;;;;;;;14.60;11.18;;;;;;;15.29;87.24;101531.31;5045124;28;21022;-74
2023/06/17 01:24:30;;;;;;;15.52;11.93;;;;;;;15.13;88.39;101534.25;5036682;28;20927;-74
2023/06/17 01:26:59;;;;;;;16.17;11.85;;;;;;;15.17;88.02;101525.00;5020671;28;20134;-74
2023/06/17 01:29:29;;;;;;;18.02;12.27;;;;;;;15.14;88.61;101535.13;5059117;28;20134;-74
2023/06/17 01:31:58;;;;;;;17.92;11.02;;;;;;;14.98;89.79;101538.03;5037582;28;20877;-74
2023/06/17 01:34:34;;;;;;;14.07;11.13;;;;;;;15.02;88.87;101534.16;5057953;28;20141;-74
2023/06/17 01:37:11;;;;;;;16.73;11.13;;;;;;;15.07;88.45;101540.06;5045633;28;20037;-75
2023/06/17 01:39:41;;;;;;;14.45;10.93;;;;;;;15.01;88.83;101532.47;5056296;28;20714;-72
2023/06/17 01:42:13;;;;;;;14.38;11.43;;;;;;;14.60;91.13;101540.69;5066760;28;20033;-74
2023/06/17 01:44:41;;;;;;;14.05;10.70;;;;;;;14.55;91.37;101542.84;5035702;28;20041;-71
2023/06/17 01:47:10;;;;;;;17.10;11.95;;;;;;;14.60;91.46;101543.38;5044178;28;20041;-73
2023/06/17 01:49:37;;;;;;;13.68;11.90;;;;;;;14.57;91.08;101544.47;5040089;28;20036;-74
2023/06/17 01:52:03;;;;;;;16.35;11.95;;;;;;;14.59;91.98;101541.66;5050067;28;20950;-73
2023/06/17 01:54:29;;;;;;;18.25;11.48;;;;;;;14.49;93.55;101544.97;5064348;28;20033;-74
2023/06/17 01:56:56;;;;;;;14.05;11.68;;;;;;;14.50;94.36;101546.69;5042876;28;20029;-72
2023/06/17 01:59:21;;;;;;;15.43;12.43;;;;;;;14.47;94.24;101546.94;5042260;28;20037;-73
2023/06/17 02:01:47;;;;;;;15.82;11.38;;;;;;;14.48;94.01;101547.78;5045890;28;20036;-72
2023/06/17 02:04:13;;;;;;;18.95;12.00;;;;;;;14.39;94.10;101546.53;5036566;28;20462;-76
2023/06/17 02:06:40;;;;;;;17.23;11.13;;;;;;;14.33;95.69;101555.00;5044129;28;20051;-73
2023/06/17 02:09:07;;;;;;;14.43;11.27;;;;;;;14.30;95.56;101554.34;5071150;28;20025;-74
2023/06/17 02:11:32;;;;;;;16.20;12.05;;;;;;;14.30;95.58;101554.34;5051981;28;20041;-74
2023/06/17 02:13:58;;;;;;;15.65;12.38;;;;;;;14.31;95.64;101554.28;5067680;28;20163;-75
2023/06/17 02:16:23;;;;;;;16.08;11.77;;;;;;;14.42;93.88;101550.84;5063062;28;20227;-76
2023/06/17 02:18:52;;;;;;;16.35;12.38;;;;;;;14.46;94.10;101547.00;5060862;28;20033;-74
2023/06/17 02:21:18;;;;;;;13.63;11.70;;;;;;;14.45;94.88;101553.31;5064222;28;20733;-73
2023/06/17 02:23:48;;;;;;;16.75;12.20;;;;;;;14.32;93.75;101547.94;5064460;28;20102;-75
2023/06/17 02:26:16;;;;;;;15.18;11.27;;;;;;;14.31;93.53;101548.03;5057410;28;20035;-74
2023/06/17 02:28:42;;;;;;;14.40;10.85;;;;;;;14.31;92.32;101539.97;5055670;28;20029;-72
2023/06/17 02:31:10;;;;;;;16.13;12.18;;;;;;;14.27;93.21;101549.22;5048704;28;20120;-71
2023/06/17 02:33:36;;;;;;;14.77;11.88;;;;;;;14.16;94.70;101541.91;5049047;28;20598;-74
2023/06/17 02:36:02;;;;;;;15.98;12.20;;;;;;;14.12;93.91;101538.56;5061457;28;20040;-76
2023/06/17 02:38:28;;;;;;;16.52;12.40;;;;;;;14.08;93.41;101531.66;5014997;28;20265;-76
2023/06/17 02:40:54;;;;;;;17.30;12.20;;;;;;;14.11;95.77;101536.84;5047210;28;20279;-77
2023/06/17 02:43:20;;;;;;;20.83;13.57;;;;;;;13.97;96.94;101539.56;5061739;28;20438;-75
2023/06/17 02:45:46;;;;;;;21.20;12.23;;;;;;;13.94;96.56;101529.03;5059265;28;20336;-74
2023/06/17 02:48:12;;;;;;;19.25;13.07;;;;;;;14.13;94.59;101531.34;5033746;28;20041;-73
2023/06/17 02:50:41;;;;;;;16.55;13.27;;;;;;;14.11;95.56;101531.47;5058003;28;20171;-74
2023/06/17 02:53:07;;;;;;;20.42;13.07;;;;;;;14.12;96.75;101527.81;5058265;28;20045;-73
2023/06/17 02:55:33;;;;;;;15.57;11.88;;;;;;;14.16;97.24;101521.28;5049610;28;20142;-76
2023/06/17 02:58:07;;;;;;;17.60;12.52;;;;;;;13.98;98.42;101525.19;5046811;28;20040;-74
2023/06/17 03:00:40;;;;;;;13.05;11.38;;;;;;;13.77;96.23;101521.28;5040863;28;20107;-75
2023/06/17 03:03:07;;;;;;;21.65;14.10;;;;;;;13.81;96.84;101525.47;5025194;28;20049;-75
2023/06/17 03:05:33;;;;;;;18.38;14.00;;;;;;;13.81;97.62;101522.78;5043635;28;20495;-77
2023/06/17 03:07:59;;;;;;;16.20;11.65;;;;;;;13.82;97.71;101522.69;5040911;28;20509;-75
2023/06/17 03:10:25;;;;;;;18.15;13.43;;;;;;;13.76;99.42;101525.78;5050234;28;20167;-74
2023/06/17 03:13:01;;;;;;;18.92;13.98;;;;;;;13.65;100.00;101529.13;5035017;28;20037;-74
2023/06/17 03:15:27;;;;;;;19.80;14.10;;;;;;;13.62;100.00;101529.34;5036822;28;20025;-73
2023/06/17 03:17:53;;;;;;;20.23;13.43;;;;;;;13.57;100.00;101535.97;5034882;28;20068;-76
2023/06/17 03:20:20;;;;;;;21.67;13.40;;;;;;;13.61;100.00;101526.78;5054972;28;20040;-76
2023/06/17 03:22:47;;;;;;;17.95;13.65;;;;;;;13.59;100.00;101520.63;5038774;28;20037;-75
2023/06/17 03:25:13;;;;;;;19.20;13.50;;;;;;;13.67;100.00;101521.00;5037345;28;20029;-74
2023/06/17 03:27:41;;;;;;;19.65;13.43;;;;;;;13.84;98.46;101522.56;5064795;28;20037;-73
2023/06/17 03:30:07;;;;;;;18.52;12.73;;;;;;;13.97;97.52;101520.81;5038679;28;20079;-73
2023/06/17 03:32:35;;;;;;;18.27;13.40;;;;;;;14.38;94.85;101514.47;5051567;28;20553;-74
2023/06/17 03:35:02;;;;;;;21.33;14.02;;;;;;;14.90;93.14;101509.00;5044838;28;20102;-75
2023/06/17 03:37:28;;;;;;;22.92;13.38;;;;;;;15.33;90.71;101511.31;5039157;28;20043;-75
2023/06/17 03:39:55;;;;;;;17.92;13.40;;;;;;;15.82;88.25;101510.44;5043975;28;20045;-75
2023/06/17 03:42:20;;;;;;;16.98;13.27;;;;;;;15.83;85.15;101506.78;5057333;28;20235;-76
2023/06/17 03:44:46;;;;;;;21.63;13.57;;;;;;;16.03;82.25;101516.88;5044575;28;20032;-74
2023/06/17 03:47:11;;;;;;;22.83;15.27;;;;;;;16.47;81.16;101511.78;5049512;28;20033;-73
2023/06/17 03:49:40;;;;;;;17.38;14.10;;;;;;;16.99;78.20;101505.88;5048010;28;20039;-73
2023/06/17 03:52:07;;;;;;;16.98;13.93;;;;;;;17.65;74.62;101497.81;5043131;28;20036;-74
2023/06/17 03:54:33;;;;;;;15.55;12.57;;;;;;;18.22;71.52;101499.31;5042414;28;20032;-75
2023/06/17 03:56:58;;;;;;;15.68;12.93;;;;;;;18.65;69.57;101501.03;5060689;28;20555;-74
2023/06/17 03:59:24;;;;;;;13.05;11.43;;;;;;;19.18;67.10;101498.19;5049799;28;20473;-74
2023/06/17 04:01:50;;;;;;;15.32;12.10;;;;;;;19.60;64.92;101488.06;5052964;28;20041;-74
2023/06/17 04:04:15;;;;;;;12.93;11.50;;;;;;;20.09;62.54;101493.53;5060839;28;20036;-75
2023/06/17 04:06:41;;;;;;;17.83;12.63;;;;;;;20.31;60.66;101490.50;5061530;28;20036;-76
2023/06/17 04:09:08;;;;;;;14.95;11.77;;;;;;;20.52;59.66;101492.22;5069955;28;20040;-76
2023/06/17 04:11:36;;;;;;;18.48;12.82;;;;;;;20.81;59.04;101494.84;5054034;28;20047;-74
2023/06/17 04:14:02;;;;;;;15.25;11.32;;;;;;;21.37;57.76;101477.63;5068165;28;20063;-76
2023/06/17 04:16:30;;;;;;;16.55;11.65;;;;;;;21.83;56.03;101481.16;5038838;28;20044;-76
2023/06/17 04:18:57;;;;;;;20.55;12.02;;;;;;;22.23;55.19;101476.13;5039472;28;20076;-74
2023/06/17 04:21:23;;;;;;;17.00;11.48;;;;;;;22.63;54.60;101484.72;5047158;28;20032;-75
2023/06/17 04:23:50;;;;;;;13.50;10.82;;;;;;;22.99;53.63;101485.47;5050818;28;20371;-75
2023/06/17 04:26:16;;;;;;;12.82;11.13;;;;;;;23.28;53.11;101485.09;5071106;28;20028;-74
2023/06/17 04:28:42;;;;;;;11.35;9.80;;;;;;;23.59;52.67;101477.19;5040662;28;20370;-75
2023/06/17 04:31:10;;;;;;;13.32;11.38;;;;;;;23.95;51.91;101479.69;5059129;28;20033;-77
2023/06/17 04:33:37;;;;;;;13.15;11.75;;;;;;;24.24;50.78;101479.16;5043577;28;20064;-74
2023/06/17 04:36:11;;;;;;;12.68;11.18;;;;;;;24.79;49.29;101479.28;5042485;28;20044;-74
2023/06/17 04:38:41;;;;;;;19.30;11.57;;;;;;;25.33;47.85;101475.03;5055740;28;20048;-74
2023/06/17 04:41:08;;;;;;;15.10;11.40;;;;;;;25.70;46.54;101475.13;5058391;28;20051;-74
2023/06/17 04:43:36;;;;;;;12.38;10.73;;;;;;;25.85;46.11;101474.38;5082440;28;20098;-76
2023/06/17 04:46:08;;;;;;;16.92;12.02;;;;;;;26.05;46.24;101472.84;5072955;28;20033;-74
2023/06/17 04:48:37;;;;;;;13.25;11.35;;;;;;;26.35;45.72;101471.91;5049134;28;20121;-75
2023/06/17 04:51:03;;;;;;;15.05;11.20;;;;;;;26.91;44.75;101484.34;5055898;28;20024;-77
2023/06/17 04:53:29;;;;;;;13.75;11.55;;;;;;;27.13;44.27;101472.50;5079264;28;20699;-75
2023/06/17 04:55:55;;;;;;;14.07;11.75;;;;;;;27.22;44.07;101476.81;5052187;28;20303;-74
2023/06/17 04:58:21;;;;;;;14.95;11.63;;;;;;;27.56;43.29;101478.94;5066811;28;20041;-74
2023/06/17 05:00:50;;;;;;;19.20;13.32;;;;;;;27.85;43.06;101472.50;5065853;28;20220;-74
2023/06/17 05:03:21;;;;;;;13.90;12.45;;;;;;;28.20;42.64;101482.75;5066334;28;20425;-72
2023/06/17 05:05:48;;;;;;;14.80;12.18;;;;;;;28.60;42.04;101481.19;5079662;28;20029;-73
2023/06/17 05:08:15;;;;;;;15.10;12.65;;;;;;;28.79;41.76;101475.00;5084889;28;20045;-74
2023/06/17 05:10:41;;;;;;;14.43;12.55;;;;;;;29.00;41.32;101473.25;5075284;28;20422;-73
2023/06/17 05:13:07;;;;;;;16.65;12.13;;;;;;;29.34;40.96;101472.34;5074949;28;20096;-74
2023/06/17 05:15:34;;;;;;;19.08;12.02;;;;;;;29.65;40.24;101475.44;5068718;28;20059;-73
2023/06/17 05:17:59;;;;;;;14.88;12.35;;;;;;;29.45;41.08;101470.91;5066106;28;20047;-75
2023/06/17 05:20:26;;;;;;;15.15;13.23;;;;;;;29.59;41.30;101476.28;5054701;28;20041;-74
2023/06/17 05:22:51;;;;;;;14.60;12.50;;;;;;;29.73;41.14;101479.91;5078575;28;20025;-74
2023/06/17 05:25:17;;;;;;;15.00;12.93;;;;;;;29.89;41.80;101479.50;5078643;28;20479;-74
2023/06/17 05:27:42;;;;;;;14.77;12.50;;;;;;;29.92;41.66;101475.47;5057004;28;21055;-75
2023/06/17 05:30:10;;;;;;;16.27;12.63;;;;;;;30.08;40.62;101477.84;5054626;28;20036;-72
2023/06/17 05:32:41;;;;;;;14.70;12.87;;;;;;;30.22;40.51;101478.72;5050953;28;20037;-73
2023/06/17 05:35:07;;;;;;;15.40;12.93;;;;;;;30.03;41.51;101483.13;5045691;28;20025;-73
2023/06/17 05:37:33;;;;;;;15.07;13.52;;;;;;;29.80;40.75;101482.66;5033123;28;20041;-76
2023/06/17 05:40:02;;;;;;;19.58;14.02;;;;;;;29.91;41.77;101476.53;5051193;28;20120;-74
2023/06/17 05:42:28;;;;;;;15.60;13.05;;;;;;;29.59;41.47;101487.25;5045937;28;20231;-75
2023/06/17 05:44:54;;;;;;;15.02;13.52;;;;;;;29.29;41.45;101485.84;5048146;28;20028;-75
2023/06/17 05:47:20;;;;;;;15.57;13.77;;;;;;;28.96;41.95;101486.53;5029277;28;20124;-74
2023/06/17 05:49:46;;;;;;;17.67;13.43;;;;;;;28.84;43.18;101488.97;5035809;28;20029;-76
2023/06/17 05:52:11;;;;;;;23.10;13.00;;;;;;;28.67;42.98;101494.97;5050366;28;20052;-75
2023/06/17 05:54:39;;;;;;;14.20;12.55;;;;;;;28.67;42.63;101492.22;5047337;28;20038;-75
2023/06/17 05:57:05;;;;;;;14.75;13.18;;;;;;;28.58;42.65;101488.81;5049358;28;20024;-75
2023/06/17 05:59:32;;;;;;;16.05;13.75;;;;;;;28.64;43.92;101488.00;5070341;28;20122;-75
2023/06/17 06:01:58;;;;;;;14.40;12.55;;;;;;;28.37;43.95;101492.44;5061168;28;20351;-74
2023/06/17 06:04:24;;;;;;;15.27;12.73;;;;;;;28.11;44.64;101482.91;5051411;28;20040;-74
2023/06/17 06:06:50;;;;;;;14.57;13.07;;;;;;;27.79;44.69;101491.63;5051863;28;20028;-74
2023/06/17 06:09:15;;;;;;;17.35;13.10;;;;;;;28.03;45.03;101482.19;5065139;28;20044;-74
2023/06/17 06:11:41;;;;;;;16.15;13.52;;;;;;;28.22;45.16;101489.75;5038774;28;20033;-73
2023/06/17 06:14:07;;;;;;;17.08;12.93;;;;;;;28.25;46.04;101486.59;5057666;28;20025;-74
2023/06/17 06:16:32;;;;;;;14.93;13.48;;;;;;;28.08;46.00;101483.28;5058295;28;20029;-74
2023/06/17 06:18:58;;;;;;;18.02;14.05;;;;;;;27.62;46.25;101480.91;5046804;28;20052;-73
2023/06/17 06:21:23;;;;;;;15.00;13.48;;;;;;;27.71;46.15;101476.16;5052128;28;20033;-74
2023/06/17 06:23:49;;;;;;;16.50;12.50;;;;;;;27.78;45.62;101478.97;5040441;28;20110;-73
2023/06/17 06:26:15;;;;;;;16.45;12.55;;;;;;;27.90;46.90;101487.53;5046744;28;20032;-72
2023/06/17 06:28:41;;;;;;;13.77;12.27;;;;;;;27.86;45.96;101476.09;5064942;28;20363;-74
2023/06/17 06:31:07;;;;;;;15.50;11.63;;;;;;;27.88;45.89;101483.09;5028474;28;20029;-74
2023/06/17 06:33:35;;;;;;;17.95;12.07;;;;;;;27.26;47.28;101491.84;5046482;28;20557;-74
2023/06/17 06:36:03;;;;;;;15.13;10.73;;;;;;;27.17;45.94;101483.91;5042865;28;20030;-73
2023/06/17 06:38:28;;;;;;;12.98;10.07;;;;;;;27.28;44.57;101484.28;5046436;28;20502;-73
2023/06/17 06:40:54;;;;;;;15.80;9.77;;;;;;;27.63;45.23;101481.75;5031249;28;20044;-74
2023/06/17 06:43:20;;;;;;;10.85;8.25;;;;;;;27.30;43.34;101476.69;5061470;28;20048;-74
2023/06/17 06:45:53;;;;;;;10.43;8.95;;;;;;;27.02;44.15;101484.75;5040883;28;20031;-74
2023/06/17 06:48:20;;;;;;;11.70;7.68;;;;;;;26.50;41.95;101480.16;5060501;28;20091;-72
2023/06/17 06:50:46;;;;;;;11.00;7.97;;;;;;;27.17;43.19;101482.03;5039519;28;20045;-74
2023/06/17 06:53:12;;;;;;;11.90;9.10;;;;;;;27.15;43.12;101484.09;5038313;28;20033;-74
2023/06/17 06:55:41;;;;;;;10.23;8.45;;;;;;;27.42;42.54;101488.03;5071581;28;20244;-73
2023/06/17 06:58:07;;;;;;;11.50;7.90;;;;;;;27.15;43.07;101495.03;5060828;28;20037;-76
2023/06/17 07:00:34;;;;;;;14.95;9.18;;;;;;;27.26;42.85;101485.50;5056128;28;20714;-74
2023/06/17 07:03:01;;;;;;;8.85;7.00;;;;;;;27.26;42.55;101486.38;5052746;28;20341;-73
2023/06/17 07:05:28;;;;;;;9.68;7.50;;;;;;;27.49;42.63;101486.22;5056601;28;20285;-73
2023/06/17 07:07:58;;;;;;;11.43;8.30;;;;;;;27.53;43.29;101486.69;5049863;28;20043;-74
2023/06/17 07:10:23;;;;;;;11.38;8.90;;;;;;;27.30;44.41;101487.66;5060847;28;20037;-74
2023/06/17 07:12:49;;;;;;;9.45;7.78;;;;;;;27.72;43.87;101482.50;5043834;28;20033;-73
2023/06/17 07:15:16;;;;;;;10.45;8.32;;;;;;;27.41;42.78;101490.94;5063911;28;20047;-74
2023/06/17 07:17:42;;;;;;;11.63;8.43;;;;;;;27.73;41.82;101493.25;5046667;28;20048;-74
2023/06/17 07:20:10;;;;;;;10.13;8.07;;;;;;;27.63;42.23;101492.69;5064161;28;20622;-73
2023/06/17 07:22:38;;;;;;;10.60;7.60;;;;;;;27.50;40.33;101496.13;5034210;28;20963;-73
2023/06/17 07:25:05;;;;;;;8.05;6.43;;;;;;;27.66;41.27;101494.19;5063882;28;20044;-75
2023/06/17 07:27:30;;;;;;;8.00;6.22;;;;;;;27.55;40.11;101487.31;5030206;28;20862;-72
2023/06/17 07:29:56;;;;;;;8.63;5.53;;;;;;;27.37;39.12;101482.28;5070794;28;20033;-75
2023/06/17 07:32:22;;;;;;;8.18;6.10;;;;;;;27.22;40.26;101487.78;5064365;28;20036;-77
2023/06/17 07:34:48;;;;;;;6.03;5.43;;;;;;;27.05;37.37;101481.59;5061469;28;20083;-75
2023/06/17 07:37:15;;;;;;;7.38;5.40;;;;;;;27.29;38.53;101475.00;5051668;28;20128;-74
2023/06/17 07:39:41;;;;;;;5.68;4.57;;;;;;;27.39;38.42;101484.81;5060092;28;20231;-71
2023/06/17 07:42:07;;;;;;;7.28;5.40;;;;;;;27.49;36.51;101477.16;5063654;28;20044;-74
2023/06/17 07:44:32;;;;;;;5.85;5.15;;;;;;;27.29;35.96;101476.91;5062638;28;20662;-75
2023/06/17 07:46:58;;;;;;;5.85;5.13;;;;;;;27.65;37.23;101478.78;5060204;28;20040;-74
2023/06/17 07:49:23;;;;;;;7.38;5.18;;;;;;;27.60;36.88;101474.75;5061785;28;20040;-77
2023/06/17 07:51:49;;;;;;;7.07;4.60;;;;;;;27.71;35.83;101480.78;5065467;28;20522;-77
2023/06/17 07:54:15;;;;;;;9.27;5.18;;;;;;;27.55;35.94;101473.63;5061219;28;20047;-74
2023/06/17 07:56:41;;;;;;;7.00;5.00;;;;;;;28.01;37.36;101465.06;5068415;28;20082;-74
2023/06/17 07:59:07;;;;;;;7.80;5.07;;;;;;;28.10;35.59;101472.97;5050441;28;20047;-74
2023/06/17 08:01:33;;;;;;;9.85;5.03;;;;;;;28.01;36.80;101476.88;5044840;28;20042;-74
2023/06/17 08:03:58;;;;;;;9.27;5.15;;;;;;;28.01;37.50;101473.28;5064135;28;20940;-75
2023/06/17 08:06:24;;;;;;;8.00;6.13;;;;;;;27.85;36.41;101463.44;5069887;28;20114;-73
2023/06/17 08:08:50;;;;;;;6.68;5.00;;;;;;;28.02;36.65;101469.53;5046059;28;20053;-73
2023/06/17 08:11:15;;;;;;;6.97;5.05;;;;;;;28.09;34.82;101470.41;5041180;28;20091;-73
2023/06/17 08:13:41;;;;;;;7.28;5.72;;;;;;;28.28;34.91;101467.00;5070218;28;20145;-73
2023/06/17 08:16:07;;;;;;;8.25;5.50;;;;;;;28.21;36.45;101474.31;5070469;28;20043;-72
2023/06/17 08:18:32;;;;;;;8.88;5.38;;;;;;;28.27;35.32;101462.56;5070024;28;20044;-69
2023/06/17 08:20:58;;;;;;;10.30;5.35;;;;;;;28.55;36.73;101467.22;5063560;28;20267;-71
2023/06/17 08:23:23;;;;;;;6.93;5.57;;;;;;;28.84;39.26;101463.41;5030489;28;20037;-74
2023/06/17 08:25:49;;;;;;;8.48;5.60;;;;;;;28.86;34.98;101466.78;5060252;28;20489;-73
2023/06/17 08:28:15;;;;;;;8.18;5.32;;;;;;;28.62;36.56;101460.75;5066673;28;20041;-73
2023/06/17 08:30:41;;;;;;;6.10;5.45;;;;;;;28.86;34.96;101461.31;5068144;28;20033;-69
2023/06/17 08:33:07;;;;;;;5.43;4.72;;;;;;;29.08;34.86;101462.94;5063881;28;20051;-73
2023/06/17 08:35:32;;;;;;;8.98;5.53;;;;;;;28.67;35.40;101462.91;5066482;28;20136;-74
2023/06/17 08:37:57;;;;;;;8.32;5.90;;;;;;;28.58;35.29;101461.34;5069628;28;20488;-73
2023/06/17 08:40:23;;;;;;;6.63;5.55;;;;;;;28.73;36.56;101464.84;5061501;28;20044;-73
2023/06/17 08:43:03;;;;;;;11.63;5.43;;;;;;;28.69;33.71;101459.94;5070932;28;20037;-73
2023/06/17 08:45:32;;;;;;;7.97;6.05;;;;;;;27.96;36.24;101462.91;5068024;28;20109;-72
2023/06/17 08:47:58;;;;;;;9.40;5.60;;;;;;;28.02;37.86;101462.16;5066322;28;20820;-73
2023/06/17 08:50:26;;;;;;;9.82;5.68;;;;;;;28.46;35.78;101463.78;5065462;28;20043;-74
2023/06/17 08:52:52;;;;;;;5.55;5.00;;;;;;;28.68;35.37;101466.50;5059137;28;20084;-73
2023/06/17 08:55:18;;;;;;;5.68;5.13;;;;;;;28.58;35.28;101459.44;5062336;28;20305;-72
2023/06/17 08:57:44;;;;;;;6.20;5.55;;;;;;;28.72;35.90;101457.66;5062200;28;20075;-72
2023/06/17 09:00:11;;;;;;;7.63;5.72;;;;;;;28.36;37.79;101453.16;5048114;28;20144;-71
2023/06/17 09:02:37;;;;;;;9.70;5.60;;;;;;;28.71;36.66;101452.34;5064645;28;20131;-75
2023/06/17 09:05:04;;;;;;;6.07;5.45;;;;;;;28.70;36.09;101453.41;5065721;28;20048;-73
2023/06/17 09:07:30;;;;;;;7.93;5.07;;;;;;;29.20;35.50;101449.47;5064193;28;20105;-73
2023/06/17 09:10:04;;;;;;;8.35;5.18;;;;;;;29.45;36.69;101438.78;5064498;28;20032;-73
2023/06/17 09:12:40;;;;;;;7.95;5.78;;;;;;;29.38;35.88;101441.50;5033942;28;20102;-72
2023/06/17 09:15:08;;;;;;;6.72;5.70;;;;;;;29.42;35.33;101437.28;5020809;28;20037;-73
2023/06/17 09:17:37;;;;;;;10.52;5.47;;;;;;;29.11;35.39;101437.78;5062762;28;20049;-72
2023/06/17 09:20:13;;;;;;;7.80;5.53;;;;;;;29.24;36.00;101442.50;5069604;28;20024;-71
2023/06/17 09:22:47;;;;;;;10.35;6.38;;;;;;;29.10;34.64;101444.34;5052758;28;20080;-74
2023/06/17 09:25:14;;;;;;;6.80;6.07;;;;;;;28.88;33.97;101448.22;5067765;28;20036;-77
2023/06/17 09:27:48;;;;;;;6.38;5.22;;;;;;;28.67;37.51;101457.41;5060506;28;20037;-74
2023/06/17 09:30:14;;;;;;;7.65;5.15;;;;;;;28.76;35.09;101452.56;5052863;28;20090;-83
2023/06/17 09:32:42;;;;;;;6.03;5.13;;;;;;;29.24;34.53;101448.00;5070181;28;20033;-78
2023/06/17 09:35:14;;;;;;;7.82;5.40;;;;;;;29.24;35.47;101448.00;5053549;28;20051;-74
2023/06/17 09:37:46;;;;;;;7.93;5.40;;;;;;;29.19;34.80;101447.78;5057361;28;20095;-77
2023/06/17 09:40:12;;;;;;;8.80;5.57;;;;;;;29.25;35.69;101446.94;5066832;28;20149;-78
2023/06/17 09:42:38;;;;;;;5.97;5.38;;;;;;;28.96;34.80;101450.81;5064054;28;20040;-75
2023/06/17 09:45:07;;;;;;;7.78;5.50;;;;;;;28.96;34.98;101456.31;5060052;28;20037;-81
2023/06/17 09:47:33;;;;;;;10.65;5.20;;;;;;;29.41;35.35;101449.31;5066139;28;20214;-74
2023/06/17 09:50:06;;;;;;;7.10;5.65;;;;;;;29.36;33.66;101445.50;5068770;28;20062;-75
2023/06/17 09:52:35;;;;;;;10.65;5.45;;;;;;;29.21;33.85;101442.91;5047386;28;20032;-76
2023/06/17 09:55:02;;;;;;;7.55;5.80;;;;;;;29.33;35.21;101446.78;5065434;28;20036;-75
2023/06/17 09:57:31;;;;;;;7.07;5.53;;;;;;;29.31;33.67;101446.13;5056567;28;20025;-72
2023/06/17 10:00:09;;;;;;;8.00;5.03;;;;;;;29.42;32.41;101439.19;5062449;28;20028;-71
2023/06/17 10:02:41;;;;;;;6.15;5.47;;;;;;;29.28;33.00;101452.03;5044368;28;20047;-70
2023/06/17 10:05:17;;;;;;;9.88;5.75;;;;;;;29.31;33.68;101442.53;5054096;28;21069;-70
2023/06/17 10:07:45;;;;;;;9.43;5.57;;;;;;;29.44;33.17;101439.81;5070701;28;20036;-70
2023/06/17 10:10:13;;;;;;;12.68;5.93;;;;;;;29.13;33.25;101443.09;5066737;28;20048;-69
2023/06/17 10:12:42;;;;;;;7.03;6.00;;;;;;;29.05;33.67;101440.53;5068986;28;20127;-70
2023/06/17 10:15:11;;;;;;;9.02;5.65;;;;;;;28.77;38.98;101443.31;5069940;28;20046;-70
2023/06/17 10:17:39;;;;;;;14.18;5.60;;;;;;;29.49;35.39;101431.81;5069702;28;20044;-71
2023/06/17 10:20:08;;;;;;;9.13;5.28;;;;;;;29.28;32.44;101429.22;5068816;28;20040;-71
2023/06/17 10:22:37;;;;;;;5.82;5.03;;;;;;;29.58;32.73;101432.50;5059761;28;20165;-71
2023/06/17 10:25:05;;;;;;;8.23;5.55;;;;;;;29.78;33.18;101427.03;5057771;28;20041;-72
2023/06/17 10:27:31;;;;;;;7.55;5.53;;;;;;;29.43;32.62;101427.16;5052123;28;20033;-71
2023/06/17 10:29:58;;;;;;;10.88;6.18;;;;;;;29.43;33.10;101418.91;5054392;28;20033;-71
2023/06/17 10:32:24;;;;;;;7.90;5.28;;;;;;;29.41;34.65;101426.50;5061225;28;20119;-70
2023/06/17 10:35:05;;;;;;;5.78;5.18;;;;;;;29.74;32.22;101423.00;5058598;28;20037;-71
2023/06/17 10:37:32;;;;;;;9.27;6.07;;;;;;;29.38;33.67;101421.44;5064657;28;20139;-71
2023/06/17 10:40:21;;;;;;;5.07;4.55;;;;;;;29.93;34.54;101424.94;5069243;28;20059;-71
2023/06/17 10:43:00;;;;;;;9.75;5.20;;;;;;;29.81;31.39;101415.59;5059013;28;20045;-72
2023/06/17 10:45:29;;;;;;;7.85;5.47;;;;;;;29.88;33.07;101422.81;5064967;28;20033;-71
2023/06/17 10:48:14;;;;;;;7.57;5.53;;;;;;;30.07;31.21;101417.50;5068702;28;20032;-70
2023/06/17 10:50:46;;;;;;;7.72;5.63;;;;;;;30.02;32.47;101415.41;5051703;28;20033;-71
2023/06/17 10:53:16;;;;;;;6.32;5.40;;;;;;;29.96;31.49;101413.50;5063586;28;20043;-72
2023/06/17 10:55:42;;;;;;;6.28;5.50;;;;;;;30.14;32.00;101413.75;5063056;28;20041;-70
2023/06/17 10:58:08;;;;;;;7.18;5.50;;;;;;;29.91;31.13;101408.63;5063093;28;20508;-71
2023/06/17 11:00:34;;;;;;;9.80;5.28;;;;;;;29.58;32.91;101408.59;5030791;28;20025;-70
2023/06/17 11:02:59;;;;;;;5.70;5.05;;;;;;;29.86;35.81;101407.56;5044508;28;20564;-70
2023/06/17 11:05:26;;;;;;;7.25;5.38;;;;;;;29.27;34.00;101413.75;5055069;28;20493;-70
2023/06/17 11:07:52;;;;;;;6.25;5.60;;;;;;;29.32;35.40;101403.00;5057551;28;20028;-71
2023/06/17 11:10:24;;;;;;;6.65;5.90;;;;;;;29.43;31.44;101391.41;5046810;28;20343;-70
2023/06/17 11:12:50;;;;;;;5.90;5.30;;;;;;;29.40;34.26;101397.31;5060536;28;20021;-70
2023/06/17 11:15:16;;;;;;;9.13;5.80;;;;;;;29.38;32.83;101393.94;5066108;28;20122;-70